Time;durP1;ratioP1;P1;durP2;ratioP2;P2;SDS_P1;SDS_P2;PMS_P1;PMS_P2;Temp;Humidity;BMP_temperature;BMP_pressure;BME280_temperature;BME280_humidity;BME280_pressure;Samples;Min_cycle;Max_cycle;Signal;HPM_P1;HPM_P2
2024/04/02 00:01:49;;;;;;;0.25;0.25;;;;;;;;;;5082408;28;20039;-68
2024/04/02 00:04:16;;;;;;;1.27;0.30;;;10.60;99.90;;;;;;5078538;28;20078;-68
2024/04/02 00:06:42;;;;;;;0.55;0.40;;;10.10;99.90;;;;;;5065663;28;20032;-68
2024/04/02 00:09:08;;;;;;;0.47;0.47;;;10.00;99.90;;;;;;5047807;28;20605;-68
2024/04/02 00:11:33;;;;;;;0.70;0.50;;;10.10;99.90;;;;;;5083856;28;20328;-68
2024/04/02 00:13:59;;;;;;;0.80;0.80;;;10.00;99.90;;;;;;5082223;28;20375;-68
2024/04/02 00:16:25;;;;;;;9.43;1.75;;;9.70;99.90;;;;;;5083736;28;20056;-68
2024/04/02 00:18:50;;;;;;;0.35;0.35;;;9.90;99.90;;;;;;5084432;28;20042;-68
2024/04/02 00:21:16;;;;;;;0.30;0.30;;;10.10;99.90;;;;;;5082066;28;20024;-68
2024/04/02 00:23:42;;;;;;;0.65;0.32;;;9.90;99.90;;;;;;5077220;28;20031;-68
2024/04/02 00:26:08;;;;;;;0.20;0.20;;;10.00;99.90;;;;;;5082722;28;20279;-69
2024/04/02 00:28:33;;;;;;;0.30;0.20;;;9.90;99.90;;;;;;5082047;28;20390;-68
2024/04/02 00:31:00;;;;;;;0.50;0.50;;;9.90;99.90;;;;;;5083349;28;20036;-68
2024/04/02 00:33:27;;;;;;;0.20;0.20;;;9.70;99.90;;;;;;5081788;28;20099;-69
2024/04/02 00:36:06;;;;;;;0.40;0.40;;;9.80;99.90;;;;;;5081408;28;20202;-69
2024/04/02 00:38:33;;;;;;;0.35;0.35;;;9.70;99.90;;;;;;5082033;28;20066;-69
2024/04/02 00:40:59;;;;;;;1.08;0.50;;;9.60;99.90;;;;;;5081730;28;20078;-69
2024/04/02 00:43:25;;;;;;;0.20;0.20;;;9.70;99.90;;;;;;5082184;28;20039;-69
2024/04/02 00:45:52;;;;;;;0.93;0.60;;;9.70;99.90;;;;;;5081894;28;20040;-69
2024/04/02 00:48:19;;;;;;;0.88;0.63;;;9.70;99.90;;;;;;5081955;28;20186;-69
2024/04/02 00:50:45;;;;;;;0.40;0.40;;;9.70;99.90;;;;;;5082066;28;20109;-69
2024/04/02 00:53:12;;;;;;;0.85;0.60;;;9.60;99.90;;;;;;5064003;28;20134;-68
2024/04/02 00:55:40;;;;;;;1.95;0.60;;;9.60;99.90;;;;;;5084090;28;20054;-68
2024/04/02 00:58:06;;;;;;;0.50;0.50;;;9.50;99.90;;;;;;5101905;28;20044;-68
2024/04/02 01:00:35;;;;;;;0.40;0.40;;;9.30;99.90;;;;;;5101715;28;20113;-68
2024/04/02 01:03:01;;;;;;;;;;;9.40;99.90;;;;;;5101931;28;20145;-68
2024/04/02 01:05:27;;;;;;;0.30;0.30;;;9.40;99.90;;;;;;5101781;28;19916;-68
2024/04/02 01:07:53;;;;;;;0.30;0.30;;;9.30;99.90;;;;;;5101568;28;20023;-68
2024/04/02 01:10:19;;;;;;;0.73;0.70;;;9.10;99.90;;;;;;5101906;28;20366;-70
2024/04/02 01:12:45;;;;;;;0.70;0.50;;;9.00;99.90;;;;;;5101455;28;20390;-69
2024/04/02 01:15:10;;;;;;;0.50;0.50;;;8.90;99.90;;;;;;5101103;28;20031;-70
2024/04/02 01:17:36;;;;;;;0.45;0.45;;;8.80;99.90;;;;;;5065848;28;20044;-69
2024/04/02 01:20:04;;;;;;;0.32;0.30;;;;;;;;;;5100945;28;20099;-70
2024/04/02 01:22:30;;;;;;;0.98;0.60;;;8.50;99.90;;;;;;5082998;28;20147;-70
2024/04/02 01:24:59;;;;;;;0.68;0.40;;;8.60;99.90;;;;;;5104941;28;20043;-70
2024/04/02 01:27:26;;;;;;;1.00;0.40;;;8.60;99.90;;;;;;5083475;28;20102;-70
2024/04/02 01:29:52;;;;;;;2.08;0.80;;;8.60;99.90;;;;;;5116897;27;20043;-69
2024/04/02 01:32:20;;;;;;;0.52;0.52;;;8.60;99.90;;;;;;5101145;28;20023;-70
2024/04/02 01:34:45;;;;;;;0.40;0.40;;;8.60;99.90;;;;;;5101134;28;20036;-70
2024/04/02 01:37:13;;;;;;;0.40;0.40;;;8.50;99.90;;;;;;5100488;28;20201;-70
2024/04/02 01:39:39;;;;;;;0.50;0.50;;;8.50;99.90;;;;;;5100775;28;20032;-70
2024/04/02 01:42:05;;;;;;;0.95;0.57;;;8.40;99.90;;;;;;5100986;28;20036;-70
2024/04/02 01:44:31;;;;;;;0.60;0.60;;;8.40;99.90;;;;;;5106038;28;20231;-70
2024/04/02 01:46:57;;;;;;;0.80;0.73;;;8.60;99.90;;;;;;5100479;28;20044;-70
2024/04/02 01:49:22;;;;;;;2.22;0.90;;;8.40;99.90;;;;;;5100504;28;20032;-69
2024/04/02 01:51:48;;;;;;;1.38;0.70;;;8.50;99.90;;;;;;5100747;28;20036;-70
2024/04/02 01:54:14;;;;;;;1.10;0.70;;;8.60;99.90;;;;;;5100150;28;20107;-68
2024/04/02 01:56:40;;;;;;;0.40;0.40;;;8.50;99.90;;;;;;5100875;28;20042;-68
2024/04/02 01:59:05;;;;;;;1.23;0.85;;;8.50;99.90;;;;;;5082079;28;20273;-69
2024/04/02 02:01:31;;;;;;;0.52;0.52;;;8.60;99.90;;;;;;5105799;28;20049;-68
2024/04/02 02:03:56;;;;;;;0.55;0.52;;;8.50;99.90;;;;;;5100328;28;20032;-68
2024/04/02 02:06:22;;;;;;;1.10;0.80;;;8.50;99.90;;;;;;5100204;28;20032;-67
2024/04/02 02:08:49;;;;;;;1.42;1.33;;;8.60;99.90;;;;;;5100362;28;20036;-69
2024/04/02 02:11:15;;;;;;;0.90;0.90;;;8.60;99.90;;;;;;5100392;28;20193;-69
2024/04/02 02:13:41;;;;;;;2.47;0.90;;;8.80;99.90;;;;;;5100234;28;20036;-69
2024/04/02 02:16:06;;;;;;;2.25;1.08;;;8.80;99.90;;;;;;5101474;28;20071;-69
2024/04/02 02:18:32;;;;;;;1.17;1.08;;;8.60;99.90;;;;;;5100819;28;20389;-69
2024/04/02 02:20:59;;;;;;;0.82;0.82;;;8.80;99.90;;;;;;5100046;28;20043;-69
2024/04/02 02:23:26;;;;;;;1.20;1.10;;;8.70;99.90;;;;;;5100178;28;20020;-69
2024/04/02 02:25:52;;;;;;;0.80;0.80;;;8.70;99.90;;;;;;5081704;28;20363;-69
2024/04/02 02:28:18;;;;;;;3.00;0.80;;;8.90;99.90;;;;;;5100136;28;20059;-69
2024/04/02 02:30:44;;;;;;;4.38;1.13;;;8.80;99.90;;;;;;5081832;28;20097;-69
2024/04/02 02:33:10;;;;;;;3.08;1.15;;;8.90;99.90;;;;;;5099939;28;20032;-69
2024/04/02 02:35:36;;;;;;;0.75;0.68;;;8.70;99.90;;;;;;5100244;28;20118;-69
2024/04/02 02:38:02;;;;;;;0.52;0.52;;;9.10;99.90;;;;;;5099692;28;20040;-69
2024/04/02 02:40:31;;;;;;;0.88;0.68;;;8.80;99.90;;;;;;5099802;28;20024;-69
2024/04/02 02:42:57;;;;;;;0.95;0.63;;;8.80;99.90;;;;;;5099891;28;20046;-69
2024/04/02 02:45:24;;;;;;;0.65;0.65;;;8.80;99.90;;;;;;5099703;28;20062;-68
2024/04/02 02:47:50;;;;;;;2.20;0.77;;;8.80;99.90;;;;;;5099601;28;20040;-68
2024/04/02 02:50:16;;;;;;;0.63;0.60;;;8.80;99.90;;;;;;5100398;28;20031;-69
2024/04/02 02:52:43;;;;;;;0.93;0.63;;;8.30;99.90;;;;;;5097506;28;20035;-69
2024/04/02 02:55:08;;;;;;;0.10;0.10;;;8.80;99.90;;;;;;5061337;28;20399;-69
2024/04/02 02:57:34;;;;;;;1.38;0.52;;;8.70;99.90;;;;;;5061413;28;20032;-69
2024/04/02 03:00:00;;;;;;;0.80;0.40;;;8.70;99.90;;;;;;5079485;28;20032;-67
2024/04/02 03:02:25;;;;;;;0.30;0.20;;;8.60;99.90;;;;;;5079261;28;20251;-66
2024/04/02 03:04:51;;;;;;;0.30;0.22;;;8.50;99.90;;;;;;5079181;28;20048;-68
2024/04/02 03:07:17;;;;;;;0.10;0.10;;;8.50;99.90;;;;;;5080118;28;20028;-67
2024/04/02 03:09:43;;;;;;;0.15;0.10;;;8.30;99.90;;;;;;5079249;28;20387;-68
2024/04/02 03:12:09;;;;;;;0.85;0.47;;;;;;;;;;5079367;28;20021;-68
2024/04/02 03:14:35;;;;;;;0.30;0.30;;;8.20;99.90;;;;;;5079310;28;20108;-68
2024/04/02 03:17:01;;;;;;;4.65;0.57;;;8.20;99.90;;;;;;5079277;28;20036;-68
2024/04/02 03:19:28;;;;;;;0.52;0.52;;;8.10;99.90;;;;;;5061132;28;20020;-67
2024/04/02 03:21:54;;;;;;;0.75;0.60;;;7.90;99.90;;;;;;5079015;28;20036;-68
2024/04/02 03:24:19;;;;;;;1.13;0.47;;;8.00;99.90;;;;;;5079510;28;20033;-68
2024/04/02 03:26:46;;;;;;;0.40;0.30;;;7.90;99.90;;;;;;5061320;28;20344;-67
2024/04/02 03:29:12;;;;;;;0.32;0.32;;;7.80;99.90;;;;;;5078921;28;20024;-67
2024/04/02 03:31:38;;;;;;;0.60;0.52;;;8.00;99.90;;;;;;5079171;28;20110;-67
2024/04/02 03:34:04;;;;;;;2.72;0.55;;;7.90;99.90;;;;;;5079238;28;20036;-67
2024/04/02 03:36:29;;;;;;;1.52;0.60;;;8.10;99.90;;;;;;5079035;28;20101;-67
2024/04/02 03:38:55;;;;;;;1.38;0.50;;;8.00;99.90;;;;;;5078799;28;20032;-67
2024/04/02 03:41:21;;;;;;;0.85;0.77;;;8.00;99.90;;;;;;5081527;28;20027;-67
2024/04/02 03:43:48;;;;;;;1.27;0.70;;;7.90;99.90;;;;;;5082751;28;20028;-67
2024/04/02 03:46:14;;;;;;;0.90;0.60;;;7.90;99.90;;;;;;5082847;28;20067;-67
2024/04/02 03:48:40;;;;;;;2.00;1.25;;;7.70;99.90;;;;;;5082645;28;20033;-67
2024/04/02 03:51:06;;;;;;;0.98;0.75;;;7.90;99.90;;;;;;5064811;28;20103;-65
2024/04/02 03:53:32;;;;;;;2.78;1.27;;;7.70;99.90;;;;;;5082592;28;20048;-65
2024/04/02 03:56:05;;;;;;;1.77;1.55;;;7.90;99.90;;;;;;5064617;28;20074;-65
2024/04/02 03:58:31;;;;;;;1.98;1.30;;;7.90;99.90;;;;;;5083249;28;20036;-65
2024/04/02 04:00:57;;;;;;;0.75;0.70;;;7.90;99.90;;;;;;5082561;28;20038;-65
2024/04/02 04:03:27;;;;;;;1.35;1.25;;;8.10;99.90;;;;;;5082843;28;20339;-65
2024/04/02 04:06:00;;;;;;;1.08;0.98;;;8.10;99.90;;;;;;5082799;28;20037;-69
2024/04/02 04:08:27;;;;;;;2.33;2.13;;;8.00;99.90;;;;;;5082419;28;20085;-68
2024/04/02 04:10:53;;;;;;;1.65;1.55;;;8.00;99.90;;;;;;5082152;28;20032;-68
2024/04/02 04:25:03;;;;;;;1.85;1.02;;;7.90;99.90;;;;;;5117869;27;20418;-70
2024/04/02 04:27:38;;;;;;;1.40;1.30;;;8.10;99.90;;;;;;5117803;28;20027;-70
2024/04/02 04:30:07;;;;;;;1.45;1.27;;;8.00;99.90;;;;;;5118064;28;20040;-69
2024/04/02 04:32:36;;;;;;;1.48;1.30;;;7.80;99.90;;;;;;5117964;28;20016;-70
2024/04/02 04:35:02;;;;;;;2.35;2.13;;;7.90;99.90;;;;;;5117950;28;20349;-70
2024/04/02 04:37:30;;;;;;;2.38;1.95;;;8.00;99.90;;;;;;5117964;28;20055;-70
2024/04/02 04:39:56;;;;;;;3.42;2.40;;;7.80;99.90;;;;;;5117937;28;20079;-70
2024/04/02 04:42:23;;;;;;;2.42;2.22;;;8.00;99.90;;;;;;5116554;28;20019;-70
2024/04/02 04:44:49;;;;;;;2.67;1.58;;;8.10;99.90;;;;;;5117657;28;20087;-69
2024/04/02 04:47:15;;;;;;;5.55;1.42;;;7.80;99.90;;;;;;5116498;28;20015;-69
2024/04/02 04:49:41;;;;;;;2.58;2.38;;;7.90;99.90;;;;;;5117622;28;20095;-68
2024/04/02 04:52:07;;;;;;;1.90;1.75;;;8.00;99.90;;;;;;5117510;28;20020;-67
2024/04/02 04:54:33;;;;;;;1.38;1.27;;;8.00;99.90;;;;;;5117508;28;20039;-66
2024/04/02 04:57:02;;;;;;;1.63;1.50;;;8.00;99.90;;;;;;5117547;28;20312;-67
2024/04/02 04:59:28;;;;;;;1.02;0.80;;;8.30;99.90;;;;;;5117131;28;20095;-67
2024/04/02 05:01:54;;;;;;;2.45;1.77;;;8.00;99.90;;;;;;5150464;27;20028;-67
2024/04/02 05:04:19;;;;;;;0.77;0.77;;;8.00;99.90;;;;;;5117308;28;20071;-70
2024/04/02 05:06:47;;;;;;;1.98;1.77;;;8.10;99.90;;;;;;5117342;28;20315;-70
2024/04/02 05:09:12;;;;;;;1.50;0.85;;;8.00;99.90;;;;;;5117319;28;20024;-68
2024/04/02 05:11:38;;;;;;;1.13;1.00;;;8.20;99.90;;;;;;5117149;28;20091;-68
2024/04/02 05:14:04;;;;;;;1.48;1.33;;;8.10;99.90;;;;;;5116986;28;20043;-73
2024/04/02 05:16:30;;;;;;;2.40;1.02;;;8.20;99.90;;;;;;5117121;28;20330;-73
2024/04/02 05:18:56;;;;;;;1.85;1.08;;;8.30;99.90;;;;;;5117053;28;20023;-72
2024/04/02 05:21:22;;;;;;;1.05;0.80;;;8.10;99.90;;;;;;5115593;28;20067;-72
2024/04/02 05:23:50;;;;;;;1.08;0.98;;;8.00;99.90;;;;;;5094904;28;20040;-71
2024/04/02 05:26:17;;;;;;;0.90;0.80;;;8.00;99.90;;;;;;5082731;28;20032;-71
2024/04/02 05:28:43;;;;;;;3.13;1.20;;;7.90;99.90;;;;;;5093341;28;20091;-71
2024/04/02 05:31:09;;;;;;;0.98;0.80;;;7.90;99.90;;;;;;5103235;28;20043;-72
2024/04/02 05:33:35;;;;;;;1.25;0.80;;;7.80;99.90;;;;;;5101863;28;20239;-72
2024/04/02 05:36:01;;;;;;;0.73;0.63;;;7.80;99.90;;;;;;5085621;28;20017;-70
2024/04/02 05:38:27;;;;;;;0.40;0.40;;;7.90;99.90;;;;;;5082815;28;20213;-71
2024/04/02 05:40:53;;;;;;;0.68;0.68;;;7.90;99.90;;;;;;5102733;28;20040;-66
2024/04/02 05:43:19;;;;;;;0.68;0.60;;;7.80;99.90;;;;;;5103062;28;20311;-69
2024/04/02 05:45:44;;;;;;;2.17;0.68;;;7.80;99.90;;;;;;5102957;28;20223;-67
2024/04/02 05:48:10;;;;;;;0.90;0.80;;;7.60;99.90;;;;;;5101805;28;20031;-67
2024/04/02 05:50:36;;;;;;;1.35;0.93;;;7.80;99.90;;;;;;5102756;28;20008;-67
2024/04/02 05:53:01;;;;;;;0.95;0.75;;;7.70;99.90;;;;;;5102558;28;20087;-66
2024/04/02 05:55:27;;;;;;;0.60;0.60;;;7.70;99.90;;;;;;5102855;28;20035;-67
2024/04/02 05:57:55;;;;;;;0.80;0.65;;;7.90;99.90;;;;;;5102758;28;20367;-68
2024/04/02 06:00:21;;;;;;;1.02;0.77;;;7.60;99.90;;;;;;5102856;28;20016;-68
2024/04/02 06:02:46;;;;;;;0.40;0.30;;;7.80;99.90;;;;;;5102760;28;20330;-67
2024/04/02 06:05:12;;;;;;;0.50;0.50;;;7.70;99.90;;;;;;5102787;28;20023;-68
2024/04/02 06:07:38;;;;;;;1.33;0.73;;;7.70;99.90;;;;;;5093807;28;20254;-69
2024/04/02 06:10:04;;;;;;;4.57;0.40;;;7.80;99.90;;;;;;5082216;28;20013;-69
2024/04/02 06:12:31;;;;;;;0.95;0.70;;;7.80;99.90;;;;;;5082194;28;20017;-66
2024/04/02 06:14:57;;;;;;;0.70;0.50;;;7.90;99.90;;;;;;5082101;28;20027;-69
2024/04/02 06:17:22;;;;;;;1.30;0.93;;;8.30;99.90;;;;;;5082115;28;20020;-69
2024/04/02 06:19:48;;;;;;;0.98;0.60;;;7.80;99.90;;;;;;5081794;28;20080;-68
2024/04/02 06:22:14;;;;;;;1.20;0.52;;;8.00;99.90;;;;;;5082027;28;20307;-68
2024/04/02 06:24:39;;;;;;;0.50;0.50;;;7.90;99.90;;;;;;5081826;28;20048;-66
2024/04/02 06:27:05;;;;;;;0.75;0.50;;;8.10;99.90;;;;;;5081694;28;20280;-65
2024/04/02 06:29:31;;;;;;;0.30;0.30;;;8.10;99.90;;;;;;5082035;28;20027;-65
2024/04/02 06:31:57;;;;;;;1.05;0.50;;;8.30;99.90;;;;;;5081691;28;20392;-65
2024/04/02 06:34:23;;;;;;;0.52;0.50;;;8.10;99.90;;;;;;5081645;28;20028;-65
2024/04/02 06:36:48;;;;;;;0.38;0.38;;;8.20;99.90;;;;;;5080803;28;20214;-65
2024/04/02 06:39:14;;;;;;;0.45;0.30;;;8.60;99.90;;;;;;5081554;28;20193;-66
2024/04/02 06:41:40;;;;;;;0.82;0.75;;;8.40;99.90;;;;;;5081521;28;20012;-64
2024/04/02 06:44:09;;;;;;;1.35;0.68;;;8.40;99.90;;;;;;5096507;28;20028;-64
2024/04/02 06:46:34;;;;;;;0.52;0.52;;;8.50;99.90;;;;;;5101845;28;20016;-63
2024/04/02 06:49:01;;;;;;;0.70;0.70;;;8.50;99.90;;;;;;5098850;28;20211;-63
2024/04/02 06:51:26;;;;;;;0.77;0.55;;;8.60;99.90;;;;;;5101675;28;20028;-63
2024/04/02 06:53:53;;;;;;;0.47;0.47;;;8.70;99.90;;;;;;5100431;28;20062;-63
2024/04/02 06:56:19;;;;;;;0.88;0.55;;;8.70;99.90;;;;;;5101554;28;20031;-63
2024/04/02 06:58:44;;;;;;;2.58;0.60;;;8.70;99.90;;;;;;5097129;28;20020;-62
2024/04/02 07:01:11;;;;;;;0.65;0.30;;;8.90;99.90;;;;;;5096212;28;20070;-63
2024/04/02 07:03:37;;;;;;;0.28;0.28;;;8.90;99.90;;;;;;5081112;28;20035;-63
2024/04/02 07:06:04;;;;;;;1.05;0.50;;;9.10;99.90;;;;;;5081034;28;20016;-63
2024/04/02 07:08:29;;;;;;;10.77;0.82;;;9.10;99.90;;;;;;5080906;28;20036;-63
2024/04/02 07:11:03;;;;;;;0.25;0.25;;;9.20;99.90;;;;;;5081204;28;20020;-63
2024/04/02 07:13:33;;;;;;;0.60;0.50;;;9.50;99.90;;;;;;5080890;28;20494;-63
2024/04/02 07:16:01;;;;;;;2.42;0.63;;;9.50;99.90;;;;;;5080934;28;20324;-63
2024/04/02 07:18:34;;;;;;;0.50;0.40;;;9.60;99.90;;;;;;5080868;28;20052;-64
2024/04/02 07:21:02;;;;;;;0.63;0.63;;;9.70;99.90;;;;;;5080858;28;20318;-63
2024/04/02 07:23:28;;;;;;;2.05;0.60;;;9.80;99.90;;;;;;5080594;28;20028;-63
2024/04/02 07:25:54;;;;;;;0.38;0.38;;;9.90;99.90;;;;;;5080294;28;20220;-64
2024/04/02 07:28:21;;;;;;;0.40;0.40;;;10.00;99.90;;;;;;5092128;28;20055;-64
2024/04/02 07:30:47;;;;;;;0.40;0.40;;;10.10;99.90;;;;;;5072337;28;20273;-63
2024/04/02 07:33:13;;;;;;;0.35;0.22;;;10.20;99.90;;;;;;5100377;28;20035;-64
2024/04/02 07:35:39;;;;;;;0.63;0.60;;;10.20;99.90;;;;;;5091534;28;20059;-64
2024/04/02 07:38:05;;;;;;;0.20;0.20;;;10.30;99.90;;;;;;5100592;28;20031;-64
2024/04/02 07:40:31;;;;;;;0.55;0.47;;;10.30;99.90;;;;;;5106979;28;20035;-65
2024/04/02 07:42:59;;;;;;;0.60;0.60;;;10.30;99.90;;;;;;5093813;28;20021;-64
2024/04/02 07:45:25;;;;;;;0.65;0.65;;;10.40;99.90;;;;;;5084604;28;20256;-64
2024/04/02 07:47:51;;;;;;;0.85;0.43;;;10.50;99.90;;;;;;5096118;28;20063;-65
2024/04/02 07:50:17;;;;;;;2.45;0.80;;;10.60;99.90;;;;;;5079184;28;20048;-65
2024/04/02 07:52:43;;;;;;;1.88;0.80;;;10.60;99.90;;;;;;5079651;28;20048;-64
2024/04/02 07:55:09;;;;;;;1.48;0.90;;;10.70;99.90;;;;;;5079970;28;20027;-65
2024/04/02 07:57:35;;;;;;;0.50;0.50;;;10.70;99.90;;;;;;5080163;28;20024;-64
2024/04/02 08:00:00;;;;;;;0.77;0.70;;;10.90;99.90;;;;;;5080588;28;20024;-65
2024/04/02 08:02:29;;;;;;;0.90;0.57;;;11.00;99.90;;;;;;5080077;28;20027;-64
2024/04/02 08:04:55;;;;;;;0.88;0.50;;;10.80;99.90;;;;;;5079908;28;20032;-64
2024/04/02 08:07:21;;;;;;;0.68;0.52;;;11.10;99.90;;;;;;5085581;28;20028;-64
2024/04/02 08:09:47;;;;;;;7.53;0.60;;;11.20;99.90;;;;;;5088874;28;20028;-64
2024/04/02 08:12:13;;;;;;;0.40;0.40;;;11.20;99.90;;;;;;5079604;28;20034;-64
2024/04/02 08:14:41;;;;;;;0.60;0.60;;;11.30;99.90;;;;;;5086823;28;20332;-64
2024/04/02 08:17:07;;;;;;;5.85;0.43;;;11.40;99.90;;;;;;5080553;28;20026;-64
2024/04/02 08:19:33;;;;;;;0.65;0.50;;;11.50;99.90;;;;;;5079742;28;20605;-64
2024/04/02 08:21:58;;;;;;;0.40;0.40;;;12.60;99.80;;;;;;5079549;28;20035;-64
2024/04/02 08:24:25;;;;;;;0.50;0.50;;;11.60;99.90;;;;;;5079439;28;20064;-65
2024/04/02 08:26:52;;;;;;;2.17;0.75;;;11.80;99.90;;;;;;5081795;28;20036;-64
2024/04/02 08:29:18;;;;;;;0.88;0.75;;;11.70;97.30;;;;;;5088436;28;20028;-64
2024/04/02 08:31:44;;;;;;;0.50;0.50;;;;;;;;;;5079716;28;20040;-64
2024/04/02 08:34:10;;;;;;;0.60;0.60;;;11.80;96.80;;;;;;5079042;28;20247;-65
2024/04/02 08:36:37;;;;;;;1.85;0.70;;;12.00;99.90;;;;;;5079435;28;20026;-64
2024/04/02 08:39:04;;;;;;;1.15;0.68;;;12.00;96.10;;;;;;5079655;28;20024;-64
2024/04/02 08:41:29;;;;;;;0.52;0.52;;;12.00;95.40;;;;;;5078342;28;20060;-64
2024/04/02 08:43:58;;;;;;;0.80;0.65;;;12.10;99.90;;;;;;5079392;28;20031;-65
2024/04/02 08:46:28;;;;;;;1.25;0.57;;;12.20;95.50;;;;;;5079484;28;20037;-64
2024/04/02 08:48:56;;;;;;;1.02;0.50;;;12.20;93.90;;;;;;5084187;28;20074;-64
2024/04/02 08:51:22;;;;;;;0.77;0.57;;;12.60;99.90;;;;;;5080005;28;20040;-64
2024/04/02 08:53:48;;;;;;;0.90;0.57;;;12.10;93.60;;;;;;5079091;28;20039;-65
2024/04/02 08:56:17;;;;;;;0.40;0.40;;;12.10;93.20;;;;;;5079381;28;20020;-64
2024/04/02 08:58:45;;;;;;;0.47;0.32;;;12.10;92.00;;;;;;5082632;28;20055;-64
2024/04/02 09:01:14;;;;;;;0.70;0.70;;;12.20;99.90;;;;;;5082639;28;20024;-65
2024/04/02 09:03:41;;;;;;;2.67;0.73;;;12.30;99.90;;;;;;5081679;28;20134;-64
2024/04/02 09:06:07;;;;;;;1.15;0.60;;;12.00;99.90;;;;;;5082934;28;20067;-65
2024/04/02 09:08:46;;;;;;;0.40;0.40;;;12.20;92.10;;;;;;5083546;28;20300;-65
2024/04/02 09:11:12;;;;;;;1.48;0.82;;;12.30;91.90;;;;;;5083084;28;20024;-65
2024/04/02 09:13:39;;;;;;;1.48;0.60;;;12.50;91.90;;;;;;5082561;28;20090;-65
2024/04/02 09:16:10;;;;;;;0.50;0.50;;;12.40;92.00;;;;;;5084684;28;20197;-64
2024/04/02 09:18:42;;;;;;;1.25;0.68;;;12.60;91.60;;;;;;5095109;28;20085;-64
2024/04/02 09:21:15;;;;;;;0.75;0.63;;;12.80;90.00;;;;;;5085868;28;20057;-64
2024/04/02 09:23:41;;;;;;;1.05;0.70;;;13.60;90.70;;;;;;5084424;28;20047;-64
2024/04/02 09:26:10;;;;;;;0.50;0.50;;;12.80;90.00;;;;;;5083357;28;20221;-65
2024/04/02 09:28:41;;;;;;;;;;;13.00;86.70;;;;;;5084166;28;20099;-65
2024/04/02 09:31:07;;;;;;;0.52;0.52;;;12.90;83.60;;;;;;5083761;28;19920;-65
2024/04/02 09:33:37;;;;;;;0.80;0.80;;;12.80;84.50;;;;;;5082045;28;20043;-65
2024/04/02 09:36:03;;;;;;;0.60;0.60;;;12.90;85.10;;;;;;5083778;28;20035;-65
2024/04/02 09:38:29;;;;;;;1.35;0.68;;;12.90;83.90;;;;;;5082349;28;20048;-65
2024/04/02 09:40:57;;;;;;;0.60;0.60;;;12.80;85.10;;;;;;5082049;28;20074;-65
2024/04/02 09:43:23;;;;;;;2.70;0.70;;;12.90;98.50;;;;;;5082898;28;20028;-65
2024/04/02 09:45:51;;;;;;;0.70;0.70;;;12.80;85.10;;;;;;5082037;28;20212;-65
2024/04/02 09:48:21;;;;;;;0.70;0.60;;;12.90;85.90;;;;;;5082178;28;20027;-65
2024/04/02 09:50:47;;;;;;;2.05;0.70;;;12.90;85.00;;;;;;5083314;28;20055;-65
2024/04/02 09:53:15;;;;;;;1.50;0.60;;;13.00;82.80;;;;;;5084977;28;20093;-65
2024/04/02 09:55:40;;;;;;;0.60;0.60;;;13.40;96.40;;;;;;5081902;28;20384;-64
2024/04/02 09:58:10;;;;;;;0.40;0.40;;;13.20;83.00;;;;;;5085572;28;20032;-64
2024/04/02 10:00:37;;;;;;;0.93;0.70;;;13.30;82.20;;;;;;5082755;28;20197;-64
2024/04/02 10:03:05;;;;;;;0.93;0.60;;;13.80;92.90;;;;;;5082214;28;20330;-65
2024/04/02 10:05:34;;;;;;;0.73;0.60;;;13.70;92.00;;;;;;5083047;28;20032;-64
2024/04/02 10:08:00;;;;;;;0.80;0.60;;;;;;;;;;5083246;28;20400;-64
2024/04/02 10:10:29;;;;;;;1.85;0.60;;;13.70;92.10;;;;;;5081736;28;20032;-64
2024/04/02 10:12:56;;;;;;;3.90;0.70;;;13.70;76.30;;;;;;5081770;28;20028;-65
2024/04/02 10:15:25;;;;;;;1.85;0.70;;;13.70;91.10;;;;;;5081651;28;20036;-65
2024/04/02 10:17:58;;;;;;;;;;;13.80;75.30;;;;;;5086738;28;20032;-65
2024/04/02 10:20:30;;;;;;;1.25;0.57;;;13.90;89.60;;;;;;5081521;28;20252;-65
2024/04/02 10:22:56;;;;;;;0.40;0.40;;;14.10;73.30;;;;;;5082038;28;20036;-65
2024/04/02 10:25:37;;;;;;;0.65;0.40;;;14.40;90.60;;;;;;5081520;28;20036;-65
2024/04/02 10:28:03;;;;;;;0.55;0.50;;;14.80;87.40;;;;;;5095537;28;20028;-65
2024/04/02 10:30:29;;;;;;;0.70;0.60;;;14.90;87.30;;;;;;5085452;28;20032;-65
2024/04/02 10:32:57;;;;;;;0.60;0.60;;;;;;;;;;5081109;28;20320;-65
2024/04/02 10:35:29;;;;;;;3.30;0.52;;;15.20;70.20;;;;;;5081302;28;20032;-65
2024/04/02 10:37:56;;;;;;;1.13;0.52;;;15.60;70.20;;;;;;5081053;28;20028;-66
2024/04/02 10:40:26;;;;;;;1.17;0.45;;;15.60;82.40;;;;;;5081166;28;20039;-65
2024/04/02 10:42:52;;;;;;;2.80;0.32;;;15.60;82.80;;;;;;5088104;28;20438;-65
2024/04/02 10:45:19;;;;;;;0.70;0.47;;;15.50;65.90;;;;;;5079884;28;20111;-66
2024/04/02 10:47:49;;;;;;;0.40;0.40;;;15.30;82.60;;;;;;5080877;28;20074;-65
2024/04/02 10:50:16;;;;;;;1.85;0.40;;;15.20;65.50;;;;;;5081552;28;20035;-65
2024/04/02 10:52:42;;;;;;;0.40;0.40;;;15.50;66.60;;;;;;5080651;28;20039;-66
2024/04/02 10:55:09;;;;;;;1.77;0.57;;;15.70;64.50;;;;;;5080955;28;20066;-65
2024/04/02 10:57:35;;;;;;;0.40;0.40;;;15.80;64.60;;;;;;5083156;28;20032;-65
2024/04/02 11:00:04;;;;;;;0.55;0.40;;;15.90;64.20;;;;;;5080978;28;20039;-65
2024/04/02 11:02:34;;;;;;;4.05;0.60;;;16.00;64.20;;;;;;5080803;28;20020;-65
2024/04/02 11:05:00;;;;;;;1.92;0.75;;;15.90;64.40;;;;;;5080706;28;20027;-65
2024/04/02 11:07:26;;;;;;;0.63;0.30;;;15.70;64.90;;;;;;5081510;28;20029;-65
2024/04/02 11:09:52;;;;;;;0.32;0.32;;;15.50;87.80;;;;;;5080512;28;20032;-65
2024/04/02 11:12:19;;;;;;;0.40;0.40;;;15.50;64.70;;;;;;5080834;28;20040;-65
2024/04/02 11:14:48;;;;;;;2.38;0.47;;;15.30;64.70;;;;;;5080554;28;20027;-65
2024/04/02 11:17:14;;;;;;;1.95;0.63;;;15.20;66.20;;;;;;5080432;28;20021;-65
2024/04/02 11:19:39;;;;;;;0.98;0.50;;;15.50;66.00;;;;;;5080258;28;20066;-65
2024/04/02 11:25:06;;;;;;;0.88;0.50;;;15.60;65.20;;;;;;5080682;28;20131;-67
2024/04/02 11:27:32;;;;;;;0.70;0.40;;;15.50;63.80;;;;;;5083268;28;20052;-67
2024/04/02 11:30:01;;;;;;;1.55;0.60;;;15.60;62.40;;;;;;5080197;28;20219;-67
2024/04/02 11:32:30;;;;;;;2.85;0.38;;;16.10;97.50;;;;;;5080132;28;20028;-66
2024/04/02 11:35:09;;;;;;;0.50;0.50;;;16.20;81.00;;;;;;5080226;28;20043;-66
2024/04/02 11:37:35;;;;;;;1.48;0.25;;;16.30;60.00;;;;;;5080348;28;20025;-66
2024/04/02 11:40:02;;;;;;;0.63;0.30;;;16.70;60.20;;;;;;5080422;28;20020;-66
2024/04/02 11:42:29;;;;;;;0.28;0.22;;;16.70;59.70;;;;;;5080986;28;20040;-67
2024/04/02 11:44:57;;;;;;;2.47;0.30;;;16.30;59.50;;;;;;5081152;28;20067;-66
2024/04/02 11:47:24;;;;;;;0.57;0.20;;;15.90;60.50;;;;;;5080324;28;20258;-66
2024/04/02 11:49:50;;;;;;;0.30;0.30;;;15.40;61.80;;;;;;5079955;28;20032;-66
2024/04/02 11:52:16;;;;;;;0.22;0.22;;;14.80;64.00;;;;;;5079991;28;20087;-65
2024/04/02 11:54:42;;;;;;;1.52;0.60;;;14.00;68.70;;;;;;5079855;28;20047;-66
2024/04/02 12:00:11;;;;;;;0.70;0.50;;;13.20;88.90;;;;;;5081074;28;20240;-66
2024/04/02 12:02:39;;;;;;;1.75;0.50;;;12.80;78.50;;;;;;5079909;28;20028;-64
2024/04/02 12:05:05;;;;;;;0.70;0.60;;;12.80;92.60;;;;;;5081389;28;20381;-64
2024/04/02 12:07:31;;;;;;;1.75;0.52;;;14.40;91.70;;;;;;5080745;28;20024;-64
2024/04/02 12:09:59;;;;;;;0.75;0.60;;;13.60;89.30;;;;;;5085384;28;20025;-64
2024/04/02 12:12:26;;;;;;;2.47;0.93;;;14.20;87.00;;;;;;5079567;28;20035;-64
2024/04/02 12:14:53;;;;;;;1.35;0.75;;;14.70;98.40;;;;;;5091468;28;20244;-64
2024/04/02 12:17:21;;;;;;;3.13;0.60;;;15.40;86.70;;;;;;5087337;28;20031;-64
2024/04/02 12:19:47;;;;;;;2.45;0.82;;;15.60;86.40;;;;;;5073685;28;20077;-64
2024/04/02 12:22:16;;;;;;;2.50;1.27;;;15.70;85.10;;;;;;5080841;28;20036;-64
2024/04/02 12:24:42;;;;;;;2.05;0.60;;;15.40;80.30;;;;;;5079318;28;20048;-64
2024/04/02 12:27:08;;;;;;;1.75;0.73;;;15.10;77.70;;;;;;5082701;28;20134;-64
2024/04/02 12:29:36;;;;;;;2.92;0.77;;;15.30;79.60;;;;;;5079515;28;20035;-64
2024/04/02 12:32:05;;;;;;;4.65;0.60;;;14.60;80.10;;;;;;5080157;28;20058;-64
2024/04/02 12:34:30;;;;;;;;;;;14.50;80.80;;;;;;5080741;28;20048;-64
2024/04/02 12:36:57;;;;;;;1.15;0.65;;;14.70;78.90;;;;;;5083670;28;19923;-64
2024/04/02 12:39:22;;;;;;;1.23;0.70;;;14.80;78.10;;;;;;5082280;28;20193;-63
2024/04/02 12:41:48;;;;;;;0.90;0.50;;;15.80;92.90;;;;;;5083368;28;20328;-64
2024/04/02 12:44:14;;;;;;;0.47;0.47;;;15.70;98.40;;;;;;5083589;28;20088;-64
2024/04/02 12:46:40;;;;;;;0.90;0.57;;;15.70;84.40;;;;;;5085767;28;20040;-64
2024/04/02 12:49:08;;;;;;;4.13;0.50;;;15.80;72.60;;;;;;5090974;28;20332;-64
2024/04/02 12:51:35;;;;;;;1.52;0.52;;;16.30;71.10;;;;;;5083422;28;20052;-64
2024/04/02 12:54:01;;;;;;;1.80;0.40;;;;;;;;;;5082929;28;20048;-64
2024/04/02 12:56:28;;;;;;;0.70;0.50;;;;;;;;;;5083056;28;20036;-64
2024/04/02 12:58:54;;;;;;;1.33;0.38;;;17.10;78.50;;;;;;5086516;28;20453;-64
2024/04/02 13:01:20;;;;;;;1.40;0.30;;;17.00;65.80;;;;;;5082985;28;20032;-64
2024/04/02 13:03:47;;;;;;;0.80;0.50;;;17.00;64.40;;;;;;5083090;28;20036;-64
2024/04/02 13:06:13;;;;;;;0.50;0.30;;;17.20;76.80;;;;;;5089961;28;20043;-64
2024/04/02 13:08:45;;;;;;;1.98;0.60;;;17.10;62.60;;;;;;5093261;28;20093;-64
2024/04/02 13:11:17;;;;;;;0.82;0.50;;;17.50;75.20;;;;;;5086920;28;20025;-64